sensor_id;sensor_type;location;lat;lon;timestamp;pressure;altitude;pressure_sealevel;temperature;humidity
10988;BME280;5547;42.672;23.230;2022-11-15T00:01:35;93939.19;;;0.36;100.00
10988;BME280;5547;42.672;23.230;2022-11-15T00:04:02;93934.38;;;0.26;100.00
10988;BME280;5547;42.672;23.230;2022-11-15T00:06:27;93936.63;;;0.15;100.00
10988;BME280;5547;42.672;23.230;2022-11-15T00:08:53;93941.75;;;0.12;100.00
10988;BME280;5547;42.672;23.230;2022-11-15T00:11:18;93931.09;;;0.17;100.00
10988;BME280;5547;42.672;23.230;2022-11-15T00:13:43;93929.50;;;0.04;100.00
10988;BME280;5547;42.672;23.230;2022-11-15T00:16:09;93924.94;;;0.01;100.00
10988;BME280;5547;42.672;23.230;2022-11-15T00:18:35;93920.31;;;-0.03;100.00
10988;BME280;5547;42.672;23.230;2022-11-15T00:21:04;93922.31;;;0.01;100.00
10988;BME280;5547;42.672;23.230;2022-11-15T00:23:31;93916.94;;;-0.03;100.00
10988;BME280;5547;42.672;23.230;2022-11-15T00:25:57;93923.38;;;-0.01;100.00
10988;BME280;5547;42.672;23.230;2022-11-15T00:28:23;93919.03;;;0.04;100.00
10988;BME280;5547;42.672;23.230;2022-11-15T00:30:48;93917.13;;;0.13;100.00
10988;BME280;5547;42.672;23.230;2022-11-15T00:33:13;93914.75;;;0.32;100.00
10988;BME280;5547;42.672;23.230;2022-11-15T00:35:38;93912.47;;;0.31;100.00
10988;BME280;5547;42.672;23.230;2022-11-15T00:38:04;93917.56;;;0.15;100.00
10988;BME280;5547;42.672;23.230;2022-11-15T00:40:29;93920.63;;;0.17;100.00
10988;BME280;5547;42.672;23.230;2022-11-15T00:42:54;93916.22;;;0.09;100.00
10988;BME280;5547;42.672;23.230;2022-11-15T00:45:20;93904.28;;;0.20;100.00
10988;BME280;5547;42.672;23.230;2022-11-15T00:47:45;93905.56;;;0.14;100.00
10988;BME280;5547;42.672;23.230;2022-11-15T00:50:11;93900.44;;;0.17;100.00
10988;BME280;5547;42.672;23.230;2022-11-15T00:52:36;93899.91;;;0.12;100.00
10988;BME280;5547;42.672;23.230;2022-11-15T00:55:02;93904.69;;;0.10;100.00
10988;BME280;5547;42.672;23.230;2022-11-15T00:57:27;93904.25;;;0.08;100.00
10988;BME280;5547;42.672;23.230;2022-11-15T00:59:52;93907.31;;;0.10;100.00
10988;BME280;5547;42.672;23.230;2022-11-15T01:02:18;93905.88;;;0.12;100.00
10988;BME280;5547;42.672;23.230;2022-11-15T01:04:43;93897.38;;;0.15;100.00
10988;BME280;5547;42.672;23.230;2022-11-15T01:07:08;93903.72;;;0.14;100.00
10988;BME280;5547;42.672;23.230;2022-11-15T01:09:34;93899.91;;;0.12;100.00
10988;BME280;5547;42.672;23.230;2022-11-15T01:11:59;93898.88;;;0.04;100.00
10988;BME280;5547;42.672;23.230;2022-11-15T01:14:24;93902.22;;;-0.08;100.00
10988;BME280;5547;42.672;23.230;2022-11-15T01:16:50;93899.06;;;-0.13;100.00
10988;BME280;5547;42.672;23.230;2022-11-15T01:19:15;93902.88;;;-0.11;100.00
10988;BME280;5547;42.672;23.230;2022-11-15T01:21:40;93902.63;;;-0.18;100.00
10988;BME280;5547;42.672;23.230;2022-11-15T01:24:05;93899.69;;;-0.16;100.00
10988;BME280;5547;42.672;23.230;2022-11-15T01:26:31;93902.75;;;-0.14;100.00
10988;BME280;5547;42.672;23.230;2022-11-15T01:28:56;93895.63;;;-0.26;100.00
10988;BME280;5547;42.672;23.230;2022-11-15T01:31:21;93888.22;;;-0.24;100.00
10988;BME280;5547;42.672;23.230;2022-11-15T01:33:47;93896.50;;;-0.22;100.00
10988;BME280;5547;42.672;23.230;2022-11-15T01:36:13;93887.56;;;-0.21;100.00
10988;BME280;5547;42.672;23.230;2022-11-15T01:38:39;93889.84;;;0.02;100.00
10988;BME280;5547;42.672;23.230;2022-11-15T01:41:04;93884.25;;;-0.09;100.00
10988;BME280;5547;42.672;23.230;2022-11-15T01:43:34;93881.00;;;-0.06;100.00
10988;BME280;5547;42.672;23.230;2022-11-15T01:46:04;93872.63;;;0.01;100.00
10988;BME280;5547;42.672;23.230;2022-11-15T01:48:34;93884.44;;;-0.14;100.00
10988;BME280;5547;42.672;23.230;2022-11-15T01:51:00;93880.63;;;-0.17;100.00
10988;BME280;5547;42.672;23.230;2022-11-15T01:53:26;93884.88;;;-0.12;100.00
10988;BME280;5547;42.672;23.230;2022-11-15T01:55:52;93882.59;;;-0.14;100.00
10988;BME280;5547;42.672;23.230;2022-11-15T01:58:18;93879.59;;;-0.04;100.00
10988;BME280;5547;42.672;23.230;2022-11-15T02:00:43;93879.91;;;-0.05;100.00
10988;BME280;5547;42.672;23.230;2022-11-15T02:03:09;93880.69;;;0.08;100.00
10988;BME280;5547;42.672;23.230;2022-11-15T02:05:35;93877.78;;;0.22;100.00
10988;BME280;5547;42.672;23.230;2022-11-15T02:08:01;93880.63;;;0.29;100.00
10988;BME280;5547;42.672;23.230;2022-11-15T02:10:27;93878.88;;;0.20;100.00
10988;BME280;5547;42.672;23.230;2022-11-15T02:12:53;93877.75;;;0.09;100.00
10988;BME280;5547;42.672;23.230;2022-11-15T02:15:19;93874.16;;;0.14;100.00
10988;BME280;5547;42.672;23.230;2022-11-15T02:25:37;93871.31;;;0.07;100.00
10988;BME280;5547;42.672;23.230;2022-11-15T02:28:06;93874.38;;;0.09;100.00
10988;BME280;5547;42.672;23.230;2022-11-15T02:30:41;93864.34;;;-0.02;100.00
10988;BME280;5547;42.672;23.230;2022-11-15T02:36:01;93866.50;;;-0.04;100.00
10988;BME280;5547;42.672;23.230;2022-11-15T02:41:06;93866.59;;;-0.12;100.00
10988;BME280;5547;42.672;23.230;2022-11-15T02:43:38;93870.00;;;0.01;100.00
10988;BME280;5547;42.672;23.230;2022-11-15T02:49:09;93866.41;;;-0.28;100.00
10988;BME280;5547;42.672;23.230;2022-11-15T02:51:35;93861.88;;;-0.19;100.00
10988;BME280;5547;42.672;23.230;2022-11-15T02:54:00;93865.97;;;-0.09;100.00
10988;BME280;5547;42.672;23.230;2022-11-15T02:56:26;93864.94;;;-0.17;100.00
10988;BME280;5547;42.672;23.230;2022-11-15T02:58:56;93865.81;;;-0.13;100.00
10988;BME280;5547;42.672;23.230;2022-11-15T03:06:28;93872.38;;;-0.07;100.00
10988;BME280;5547;42.672;23.230;2022-11-15T03:11:23;93864.00;;;-0.33;100.00
10988;BME280;5547;42.672;23.230;2022-11-15T03:19:11;93860.16;;;-0.48;100.00
10988;BME280;5547;42.672;23.230;2022-11-15T03:21:39;93854.94;;;-0.48;100.00
10988;BME280;5547;42.672;23.230;2022-11-15T03:24:05;93860.06;;;-0.39;100.00
10988;BME280;5547;42.672;23.230;2022-11-15T03:26:31;93865.28;;;-0.39;100.00
10988;BME280;5547;42.672;23.230;2022-11-15T03:29:44;93857.03;;;-0.41;100.00
10988;BME280;5547;42.672;23.230;2022-11-15T03:31:45;93860.94;;;-0.35;100.00
10988;BME280;5547;42.672;23.230;2022-11-15T03:36:45;93851.63;;;-0.24;100.00
10988;BME280;5547;42.672;23.230;2022-11-15T03:39:10;93843.34;;;-0.26;100.00
10988;BME280;5547;42.672;23.230;2022-11-15T03:41:39;93850.56;;;-0.23;100.00
10988;BME280;5547;42.672;23.230;2022-11-15T03:44:19;93846.41;;;-0.24;100.00
10988;BME280;5547;42.672;23.230;2022-11-15T03:47:33;93842.50;;;-0.18;100.00
10988;BME280;5547;42.672;23.230;2022-11-15T03:49:33;93840.50;;;-0.21;100.00
10988;BME280;5547;42.672;23.230;2022-11-15T03:52:02;93837.34;;;-0.27;100.00
10988;BME280;5547;42.672;23.230;2022-11-15T03:54:29;93833.53;;;-0.29;100.00
10988;BME280;5547;42.672;23.230;2022-11-15T03:56:54;93832.78;;;-0.30;100.00
10988;BME280;5547;42.672;23.230;2022-11-15T03:59:19;93838.00;;;-0.30;100.00
10988;BME280;5547;42.672;23.230;2022-11-15T04:01:45;93832.13;;;-0.27;100.00
10988;BME280;5547;42.672;23.230;2022-11-15T04:04:10;93822.84;;;-0.36;100.00
10988;BME280;5547;42.672;23.230;2022-11-15T04:06:35;93824.13;;;-0.43;100.00
10988;BME280;5547;42.672;23.230;2022-11-15T04:09:01;93815.84;;;-0.45;100.00
10988;BME280;5547;42.672;23.230;2022-11-15T04:11:26;93816.47;;;-0.48;100.00
10988;BME280;5547;42.672;23.230;2022-11-15T04:13:51;93823.69;;;-0.45;100.00
10988;BME280;5547;42.672;23.230;2022-11-15T04:16:17;93823.47;;;-0.39;100.00
10988;BME280;5547;42.672;23.230;2022-11-15T04:18:42;93823.91;;;-0.37;100.00
10988;BME280;5547;42.672;23.230;2022-11-15T04:21:07;93818.06;;;-0.34;100.00
10988;BME280;5547;42.672;23.230;2022-11-15T04:23:51;93822.19;;;-0.33;100.00
10988;BME280;5547;42.672;23.230;2022-11-15T04:26:20;93825.78;;;-0.26;100.00
10988;BME280;5547;42.672;23.230;2022-11-15T04:28:46;93818.22;;;-0.18;100.00
10988;BME280;5547;42.672;23.230;2022-11-15T04:31:30;93818.31;;;-0.15;100.00
10988;BME280;5547;42.672;23.230;2022-11-15T04:33:55;93822.88;;;-0.12;100.00
10988;BME280;5547;42.672;23.230;2022-11-15T04:36:21;93821.16;;;-0.08;100.00
10988;BME280;5547;42.672;23.230;2022-11-15T04:39:06;93816.50;;;-0.02;100.00
10988;BME280;5547;42.672;23.230;2022-11-15T04:41:32;93813.25;;;0.13;100.00
10988;BME280;5547;42.672;23.230;2022-11-15T04:43:57;93821.44;;;0.24;100.00
10988;BME280;5547;42.672;23.230;2022-11-15T04:46:23;93817.63;;;0.34;100.00
10988;BME280;5547;42.672;23.230;2022-11-15T04:48:49;93819.16;;;0.35;100.00
10988;BME280;5547;42.672;23.230;2022-11-15T04:51:14;93825.59;;;0.37;100.00
10988;BME280;5547;42.672;23.230;2022-11-15T04:53:39;93826.13;;;0.31;100.00
10988;BME280;5547;42.672;23.230;2022-11-15T04:56:05;93821.22;;;0.29;100.00
10988;BME280;5547;42.672;23.230;2022-11-15T04:58:30;93819.03;;;0.31;100.00
10988;BME280;5547;42.672;23.230;2022-11-15T05:00:56;93824.72;;;0.33;100.00
10988;BME280;5547;42.672;23.230;2022-11-15T05:03:21;93830.16;;;0.40;100.00
10988;BME280;5547;42.672;23.230;2022-11-15T05:06:05;93823.50;;;0.55;100.00
10988;BME280;5547;42.672;23.230;2022-11-15T05:08:30;93827.13;;;0.63;100.00
10988;BME280;5547;42.672;23.230;2022-11-15T05:10:56;93827.53;;;0.77;100.00
10988;BME280;5547;42.672;23.230;2022-11-15T05:13:21;93826.22;;;0.96;100.00
10988;BME280;5547;42.672;23.230;2022-11-15T05:15:47;93821.94;;;1.03;100.00
10988;BME280;5547;42.672;23.230;2022-11-15T05:18:12;93823.00;;;1.15;100.00
10988;BME280;5547;42.672;23.230;2022-11-15T05:20:37;93818.94;;;1.30;100.00
10988;BME280;5547;42.672;23.230;2022-11-15T05:23:03;93807.78;;;1.33;100.00
10988;BME280;5547;42.672;23.230;2022-11-15T05:25:29;93821.28;;;1.47;100.00
10988;BME280;5547;42.672;23.230;2022-11-15T05:27:55;93813.94;;;1.53;100.00
10988;BME280;5547;42.672;23.230;2022-11-15T05:30:20;93815.03;;;1.52;100.00
10988;BME280;5547;42.672;23.230;2022-11-15T05:32:45;93819.78;;;1.34;100.00
10988;BME280;5547;42.672;23.230;2022-11-15T05:35:23;93821.88;;;1.28;100.00
10988;BME280;5547;42.672;23.230;2022-11-15T05:37:52;93813.06;;;1.20;100.00
10988;BME280;5547;42.672;23.230;2022-11-15T05:40:17;93813.47;;;1.22;100.00
10988;BME280;5547;42.672;23.230;2022-11-15T05:42:43;93820.94;;;1.20;100.00
10988;BME280;5547;42.672;23.230;2022-11-15T05:45:09;93813.41;;;1.19;100.00
10988;BME280;5547;42.672;23.230;2022-11-15T05:47:34;93817.22;;;1.21;100.00
10988;BME280;5547;42.672;23.230;2022-11-15T05:50:00;93822.56;;;1.25;100.00
10988;BME280;5547;42.672;23.230;2022-11-15T05:52:27;93829.41;;;1.30;100.00
10988;BME280;5547;42.672;23.230;2022-11-15T05:54:55;93833.44;;;1.27;100.00
10988;BME280;5547;42.672;23.230;2022-11-15T05:57:22;93830.88;;;1.43;100.00
10988;BME280;5547;42.672;23.230;2022-11-15T05:59:47;93834.00;;;1.33;100.00
10988;BME280;5547;42.672;23.230;2022-11-15T06:02:12;93836.69;;;1.36;100.00
10988;BME280;5547;42.672;23.230;2022-11-15T06:04:38;93832.00;;;1.42;100.00
10988;BME280;5547;42.672;23.230;2022-11-15T06:07:03;93834.19;;;1.40;100.00
10988;BME280;5547;42.672;23.230;2022-11-15T06:09:28;93830.00;;;1.51;100.00
10988;BME280;5547;42.672;23.230;2022-11-15T06:11:54;93833.91;;;1.57;100.00
10988;BME280;5547;42.672;23.230;2022-11-15T06:14:19;93830.75;;;1.80;100.00
10988;BME280;5547;42.672;23.230;2022-11-15T06:16:45;93826.28;;;1.80;100.00
10988;BME280;5547;42.672;23.230;2022-11-15T06:19:10;93825.03;;;1.90;100.00
10988;BME280;5547;42.672;23.230;2022-11-15T06:21:35;93824.28;;;1.89;100.00
10988;BME280;5547;42.672;23.230;2022-11-15T06:24:01;93820.47;;;2.03;100.00
10988;BME280;5547;42.672;23.230;2022-11-15T06:26:26;93820.81;;;2.01;100.00
10988;BME280;5547;42.672;23.230;2022-11-15T06:28:52;93828.84;;;1.93;100.00
10988;BME280;5547;42.672;23.230;2022-11-15T06:31:17;93824.28;;;1.89;100.00
10988;BME280;5547;42.672;23.230;2022-11-15T06:33:43;93822.22;;;1.83;100.00
10988;BME280;5547;42.672;23.230;2022-11-15T06:36:11;93830.53;;;2.01;100.00
10988;BME280;5547;42.672;23.230;2022-11-15T06:38:38;93826.41;;;2.16;100.00
10988;BME280;5547;42.672;23.230;2022-11-15T06:41:04;93820.66;;;2.26;100.00
10988;BME280;5547;42.672;23.230;2022-11-15T06:43:30;93822.69;;;2.17;100.00
10988;BME280;5547;42.672;23.230;2022-11-15T06:45:57;93825.97;;;2.14;100.00
10988;BME280;5547;42.672;23.230;2022-11-15T06:48:22;93816.56;;;2.13;100.00
10988;BME280;5547;42.672;23.230;2022-11-15T06:50:53;93823.69;;;2.28;100.00
10988;BME280;5547;42.672;23.230;2022-11-15T06:53:19;93826.44;;;2.31;100.00
10988;BME280;5547;42.672;23.230;2022-11-15T06:55:45;93820.66;;;2.26;100.00
10988;BME280;5547;42.672;23.230;2022-11-15T06:58:10;93817.84;;;2.03;100.00
10988;BME280;5547;42.672;23.230;2022-11-15T07:00:35;93815.66;;;2.05;100.00
10988;BME280;5547;42.672;23.230;2022-11-15T07:03:00;93813.28;;;2.00;100.00
10988;BME280;5547;42.672;23.230;2022-11-15T07:05:26;93820.72;;;2.14;100.00
10988;BME280;5547;42.672;23.230;2022-11-15T07:07:52;93822.94;;;2.12;100.00
10988;BME280;5547;42.672;23.230;2022-11-15T07:10:18;93826.66;;;2.10;100.00
10988;BME280;5547;42.672;23.230;2022-11-15T07:12:46;93816.94;;;2.27;100.00
10988;BME280;5547;42.672;23.230;2022-11-15T07:15:11;93811.91;;;2.22;100.00
10988;BME280;5547;42.672;23.230;2022-11-15T07:17:36;93807.94;;;2.28;100.00
10988;BME280;5547;42.672;23.230;2022-11-15T07:20:02;93807.94;;;2.28;100.00
10988;BME280;5547;42.672;23.230;2022-11-15T07:22:27;93817.16;;;2.22;100.00
10988;BME280;5547;42.672;23.230;2022-11-15T07:24:54;93819.47;;;2.39;100.00
10988;BME280;5547;42.672;23.230;2022-11-15T07:27:19;93826.84;;;2.18;100.00
10988;BME280;5547;42.672;23.230;2022-11-15T07:29:44;93818.44;;;2.28;100.00
10988;BME280;5547;42.672;23.230;2022-11-15T07:32:10;93818.97;;;2.18;100.00
10988;BME280;5547;42.672;23.230;2022-11-15T07:34:35;93821.34;;;2.23;100.00
10988;BME280;5547;42.672;23.230;2022-11-15T07:37:00;93827.78;;;2.41;100.00
10988;BME280;5547;42.672;23.230;2022-11-15T07:39:26;93821.66;;;2.37;100.00
10988;BME280;5547;42.672;23.230;2022-11-15T07:41:51;93818.63;;;2.35;100.00
10988;BME280;5547;42.672;23.230;2022-11-15T07:44:36;93828.84;;;2.40;100.00
10988;BME280;5547;42.672;23.230;2022-11-15T07:47:01;93826.34;;;2.44;100.00
10988;BME280;5547;42.672;23.230;2022-11-15T07:49:27;93820.31;;;2.59;100.00
10988;BME280;5547;42.672;23.230;2022-11-15T07:51:52;93818.28;;;2.52;100.00
10988;BME280;5547;42.672;23.230;2022-11-15T07:54:17;93820.66;;;2.93;100.00
10988;BME280;5547;42.672;23.230;2022-11-15T07:56:43;93819.31;;;2.99;100.00
10988;BME280;5547;42.672;23.230;2022-11-15T07:59:08;93815.59;;;3.20;100.00
10988;BME280;5547;42.672;23.230;2022-11-15T08:01:33;93813.34;;;3.38;100.00
10988;BME280;5547;42.672;23.230;2022-11-15T08:03:58;93816.38;;;3.40;100.00
10988;BME280;5547;42.672;23.230;2022-11-15T08:06:24;93816.38;;;3.20;100.00
10988;BME280;5547;42.672;23.230;2022-11-15T08:08:49;93820.03;;;3.35;100.00
10988;BME280;5547;42.672;23.230;2022-11-15T08:11:15;93804.94;;;3.12;100.00
10988;BME280;5547;42.672;23.230;2022-11-15T08:13:40;93820.50;;;3.21;100.00
10988;BME280;5547;42.672;23.230;2022-11-15T08:16:05;93811.59;;;3.26;100.00
10988;BME280;5547;42.672;23.230;2022-11-15T08:18:31;93809.84;;;3.14;100.00
10988;BME280;5547;42.672;23.230;2022-11-15T08:21:00;93803.69;;;3.26;100.00
10988;BME280;5547;42.672;23.230;2022-11-15T08:23:26;93803.03;;;3.48;100.00
10988;BME280;5547;42.672;23.230;2022-11-15T08:25:51;93802.41;;;3.35;100.00
10988;BME280;5547;42.672;23.230;2022-11-15T08:28:16;93803.69;;;3.26;100.00
10988;BME280;5547;42.672;23.230;2022-11-15T08:30:42;93800.16;;;3.18;100.00
10988;BME280;5547;42.672;23.230;2022-11-15T08:33:12;93793.75;;;3.35;100.00
10988;BME280;5547;42.672;23.230;2022-11-15T08:35:39;93790.97;;;3.28;100.00
10988;BME280;5547;42.672;23.230;2022-11-15T08:38:04;93790.16;;;3.43;100.00
10988;BME280;5547;42.672;23.230;2022-11-15T08:40:30;93795.41;;;3.63;100.00
10988;BME280;5547;42.672;23.230;2022-11-15T08:42:55;93793.81;;;3.39;100.00
10988;BME280;5547;42.672;23.230;2022-11-15T08:45:21;93797.34;;;3.27;100.00
10988;BME280;5547;42.672;23.230;2022-11-15T08:47:46;93790.50;;;3.61;100.00
10988;BME280;5547;42.672;23.230;2022-11-15T08:50:11;93790.13;;;3.63;100.00
10988;BME280;5547;42.672;23.230;2022-11-15T08:52:37;93784.28;;;3.50;100.00
10988;BME280;5547;42.672;23.230;2022-11-15T08:55:02;93793.91;;;3.42;100.00
10988;BME280;5547;42.672;23.230;2022-11-15T08:57:28;93782.94;;;3.60;100.00
10988;BME280;5547;42.672;23.230;2022-11-15T08:59:55;93782.59;;;3.42;100.00
10988;BME280;5547;42.672;23.230;2022-11-15T09:02:20;93778.84;;;3.62;100.00
10988;BME280;5547;42.672;23.230;2022-11-15T09:04:45;93777.06;;;3.66;100.00
10988;BME280;5547;42.672;23.230;2022-11-15T09:07:11;93776.13;;;3.97;100.00
10988;BME280;5547;42.672;23.230;2022-11-15T09:09:37;93770.78;;;3.94;100.00
10988;BME280;5547;42.672;23.230;2022-11-15T09:12:02;93769.72;;;4.21;100.00
10988;BME280;5547;42.672;23.230;2022-11-15T09:14:28;93769.09;;;4.28;100.00
10988;BME280;5547;42.672;23.230;2022-11-15T09:16:53;93769.44;;;4.27;100.00
10988;BME280;5547;42.672;23.230;2022-11-15T09:19:19;93768.50;;;4.15;100.00
10988;BME280;5547;42.672;23.230;2022-11-15T09:21:44;93759.03;;;4.60;100.00
10988;BME280;5547;42.672;23.230;2022-11-15T09:24:09;93764.91;;;4.77;100.00
10988;BME280;5547;42.672;23.230;2022-11-15T09:26:34;93749.31;;;4.65;100.00
10988;BME280;5547;42.672;23.230;2022-11-15T09:29:00;93749.69;;;4.67;100.00
10988;BME280;5547;42.672;23.230;2022-11-15T09:31:26;93743.06;;;4.76;100.00
10988;BME280;5547;42.672;23.230;2022-11-15T09:33:52;93748.28;;;4.46;100.00
10988;BME280;5547;42.672;23.230;2022-11-15T09:36:17;93739.91;;;4.14;100.00
10988;BME280;5547;42.672;23.230;2022-11-15T09:38:43;93742.56;;;4.17;100.00
10988;BME280;5547;42.672;23.230;2022-11-15T09:43:53;93737.91;;;4.57;100.00
10988;BME280;5547;42.672;23.230;2022-11-15T09:49:02;93730.25;;;4.48;100.00
10988;BME280;5547;42.672;23.230;2022-11-15T09:54:00;93730.38;;;4.06;100.00
10988;BME280;5547;42.672;23.230;2022-11-15T09:56:29;93720.81;;;4.20;100.00
10988;BME280;5547;42.672;23.230;2022-11-15T10:01:52;93713.13;;;4.35;100.00
10988;BME280;5547;42.672;23.230;2022-11-15T10:04:20;93707.19;;;4.68;100.00
10988;BME280;5547;42.672;23.230;2022-11-15T10:06:50;93704.81;;;4.90;100.00
10988;BME280;5547;42.672;23.230;2022-11-15T10:09:19;93699.44;;;5.13;100.00
10988;BME280;5547;42.672;23.230;2022-11-15T10:11:46;93701.47;;;5.26;97.63
10988;BME280;5547;42.672;23.230;2022-11-15T10:14:13;93696.41;;;5.44;97.40
10988;BME280;5547;42.672;23.230;2022-11-15T10:16:52;93688.81;;;5.39;97.89
10988;BME280;5547;42.672;23.230;2022-11-15T10:24:34;93689.00;;;5.20;97.05
10988;BME280;5547;42.672;23.230;2022-11-15T10:26:59;93680.38;;;5.23;96.88
10988;BME280;5547;42.672;23.230;2022-11-15T10:29:26;93667.97;;;5.27;96.83
10988;BME280;5547;42.672;23.230;2022-11-15T10:31:53;93669.38;;;5.55;94.71
10988;BME280;5547;42.672;23.230;2022-11-15T10:34:19;93668.97;;;5.53;94.60
10988;BME280;5547;42.672;23.230;2022-11-15T10:36:46;93665.28;;;5.61;93.26
10988;BME280;5547;42.672;23.230;2022-11-15T10:39:13;93658.50;;;5.63;92.78
10988;BME280;5547;42.672;23.230;2022-11-15T10:41:39;93647.19;;;5.63;91.84
10988;BME280;5547;42.672;23.230;2022-11-15T10:44:10;93651.63;;;5.52;92.91
10988;BME280;5547;42.672;23.230;2022-11-15T10:46:37;93643.47;;;5.64;90.99
10988;BME280;5547;42.672;23.230;2022-11-15T10:49:14;93646.41;;;5.59;91.26
10988;BME280;5547;42.672;23.230;2022-11-15T10:51:42;93639.59;;;5.54;91.60
10988;BME280;5547;42.672;23.230;2022-11-15T10:54:08;93638.03;;;5.50;95.11
10988;BME280;5547;42.672;23.230;2022-11-15T10:56:35;93634.41;;;5.65;92.45
10988;BME280;5547;42.672;23.230;2022-11-15T10:59:01;93630.38;;;5.82;89.40
10988;BME280;5547;42.672;23.230;2022-11-15T11:01:27;93627.91;;;5.55;93.01
10988;BME280;5547;42.672;23.230;2022-11-15T11:04:13;93626.78;;;5.56;91.01
10988;BME280;5547;42.672;23.230;2022-11-15T11:09:27;93620.94;;;5.77;90.76
10988;BME280;5547;42.672;23.230;2022-11-15T11:11:54;93621.41;;;5.90;88.95
10988;BME280;5547;42.672;23.230;2022-11-15T11:14:23;93613.09;;;5.88;88.11
10988;BME280;5547;42.672;23.230;2022-11-15T11:16:58;93614.31;;;5.94;88.66
10988;BME280;5547;42.672;23.230;2022-11-15T11:21:58;93602.31;;;6.07;86.05
10988;BME280;5547;42.672;23.230;2022-11-15T11:24:45;93594.06;;;6.16;87.04
10988;BME280;5547;42.672;23.230;2022-11-15T11:29:48;93590.38;;;6.31;85.63
10988;BME280;5547;42.672;23.230;2022-11-15T11:34:50;93580.28;;;6.51;83.08
10988;BME280;5547;42.672;23.230;2022-11-15T11:39:56;93567.06;;;6.48;83.27
10988;BME280;5547;42.672;23.230;2022-11-15T11:42:26;93562.16;;;6.50;83.44
10988;BME280;5547;42.672;23.230;2022-11-15T11:47:39;93554.59;;;6.45;83.57
10988;BME280;5547;42.672;23.230;2022-11-15T11:50:18;93554.25;;;6.57;84.13
10988;BME280;5547;42.672;23.230;2022-11-15T11:57:39;93538.41;;;6.61;83.73
10988;BME280;5547;42.672;23.230;2022-11-15T12:02:41;93532.44;;;6.82;81.35
10988;BME280;5547;42.672;23.230;2022-11-15T12:05:19;93531.66;;;6.81;81.89
10988;BME280;5547;42.672;23.230;2022-11-15T12:07:46;93521.09;;;6.81;82.54
10988;BME280;5547;42.672;23.230;2022-11-15T12:10:23;93511.66;;;6.80;82.35
10988;BME280;5547;42.672;23.230;2022-11-15T12:12:58;93517.34;;;6.93;82.28
10988;BME280;5547;42.672;23.230;2022-11-15T12:15:30;93481.03;;;6.61;82.26
10988;BME280;5547;42.672;23.230;2022-11-15T12:17:57;93513.97;;;6.96;80.97
10988;BME280;5547;42.672;23.230;2022-11-15T12:20:26;93512.47;;;7.09;80.66
10988;BME280;5547;42.672;23.230;2022-11-15T12:25:43;93510.19;;;6.97;81.90
10988;BME280;5547;42.672;23.230;2022-11-15T12:28:15;93496.19;;;6.89;82.31
10988;BME280;5547;42.672;23.230;2022-11-15T12:30:44;93494.31;;;6.93;81.62
10988;BME280;5547;42.672;23.230;2022-11-15T12:35:59;93489.41;;;6.96;81.51
10988;BME280;5547;42.672;23.230;2022-11-15T12:41:13;93489.41;;;6.99;82.64
10988;BME280;5547;42.672;23.230;2022-11-15T12:43:39;93491.28;;;6.95;82.89
10988;BME280;5547;42.672;23.230;2022-11-15T12:46:05;93485.63;;;6.97;82.39
10988;BME280;5547;42.672;23.230;2022-11-15T12:51:02;93484.50;;;7.19;80.60
10988;BME280;5547;42.672;23.230;2022-11-15T12:53:32;93471.66;;;7.10;80.77
10988;BME280;5547;42.672;23.230;2022-11-15T12:58:40;93468.25;;;6.99;80.98
10988;BME280;5547;42.672;23.230;2022-11-15T13:01:07;93467.13;;;6.97;81.77
10988;BME280;5547;42.672;23.230;2022-11-15T13:03:32;93472.78;;;7.06;80.97
10988;BME280;5547;42.672;23.230;2022-11-15T13:05:59;93461.81;;;6.93;80.93
10988;BME280;5547;42.672;23.230;2022-11-15T13:08:35;93468.25;;;6.85;81.60
10988;BME280;5547;42.672;23.230;2022-11-15T13:11:27;93469.75;;;6.93;81.15
10988;BME280;5547;42.672;23.230;2022-11-15T13:13:46;93452.38;;;6.92;81.53
10988;BME280;5547;42.672;23.230;2022-11-15T13:16:11;93456.91;;;6.88;81.54
10988;BME280;5547;42.672;23.230;2022-11-15T13:18:43;93448.59;;;6.86;81.69
10988;BME280;5547;42.672;23.230;2022-11-15T13:21:19;93446.72;;;6.83;81.80
10988;BME280;5547;42.672;23.230;2022-11-15T13:24:03;93448.59;;;6.89;81.63
10988;BME280;5547;42.672;23.230;2022-11-15T13:26:29;93444.06;;;6.76;82.69
10988;BME280;5547;42.672;23.230;2022-11-15T13:28:56;93444.41;;;6.67;83.58
10988;BME280;5547;42.672;23.230;2022-11-15T13:33:46;93441.00;;;6.52;83.17
10988;BME280;5547;42.672;23.230;2022-11-15T13:38:40;93445.16;;;6.53;83.76
10988;BME280;5547;42.672;23.230;2022-11-15T13:41:19;93439.81;;;6.42;84.49
10988;BME280;5547;42.672;23.230;2022-11-15T13:43:46;93444.00;;;6.43;83.63
10988;BME280;5547;42.672;23.230;2022-11-15T13:46:18;93444.38;;;6.42;83.73
10988;BME280;5547;42.672;23.230;2022-11-15T13:48:45;93433.78;;;6.35;84.21
10988;BME280;5547;42.672;23.230;2022-11-15T13:52:12;93430.34;;;6.23;85.04
10988;BME280;5547;42.672;23.230;2022-11-15T13:56:31;93428.09;;;6.15;85.64
10988;BME280;5547;42.672;23.230;2022-11-15T13:58:57;93426.91;;;6.12;85.51
10988;BME280;5547;42.672;23.230;2022-11-15T14:01:22;93436.00;;;6.18;85.21
10988;BME280;5547;42.672;23.230;2022-11-15T14:03:58;93431.50;;;6.29;84.84
10988;BME280;5547;42.672;23.230;2022-11-15T14:06:24;93437.88;;;6.18;85.08
10988;BME280;5547;42.672;23.230;2022-11-15T14:09:03;93432.66;;;6.32;84.29
10988;BME280;5547;42.672;23.230;2022-11-15T14:11:29;93434.81;;;6.05;85.75
10988;BME280;5547;42.672;23.230;2022-11-15T14:16:32;93432.00;;;5.69;87.61
10988;BME280;5547;42.672;23.230;2022-11-15T14:18:58;93427.06;;;5.60;88.51
10988;BME280;5547;42.672;23.230;2022-11-15T14:21:24;93430.38;;;5.46;89.42
10988;BME280;5547;42.672;23.230;2022-11-15T14:23:49;93417.09;;;5.36;90.13
10988;BME280;5547;42.672;23.230;2022-11-15T14:26:28;93415.53;;;5.24;90.57
10988;BME280;5547;42.672;23.230;2022-11-15T14:28:54;93412.84;;;5.13;91.35
10988;BME280;5547;42.672;23.230;2022-11-15T14:31:22;93421.44;;;5.07;91.43
10988;BME280;5547;42.672;23.230;2022-11-15T14:33:47;93421.34;;;4.92;92.54
10988;BME280;5547;42.672;23.230;2022-11-15T14:36:20;93420.50;;;4.81;92.96